Pioche, Nevada Weather observations

Data are for observation ending at time listed.
 Day   Time    Ave.   Ave.  Ave.  Vector   Max.   Stn.    Total    Solar   Ave.  
  of    of     Air    Rel.  Wind   Wind    Wind   Baro.  Precip.   Rad.    Soil  
Year   Day     Temp.  Hum.  Speed  Dir.    Gust   Pres.                    Temp. 
2014   (PST)    F      %     mph   deg.    mph     mb.     in.     W/m2     F   
------------------------------------------------------------------------------
 239    6:30   57.4    58    5.0   288      7.7   825.6    0.00     236    69.6
 239    6:40   57.9    57    5.5   300     10.4   825.7    0.00     274    69.5
 239    6:50   58.3    57    2.7   315      6.9   825.8    0.00     312    69.5
 239    7:00   59.6    55    1.9   333      5.5   825.8    0.00     352    69.4
 239    7:10   59.4    56    3.6   322      6.9   825.8    0.00     389    69.4
 239    7:20   59.9    55    3.8   315      7.0   825.9    0.00     426    69.4
 239    7:30   60.5    54    4.5   302      6.6   825.9    0.00     462    69.3
 239    7:40   61.4    52    3.9   300      7.6   826.0    0.00     498    69.3
 239    7:50   62.5    49    3.4   313      5.8   826.1    0.00     534    69.2
 239    8:00   63.6    46    2.7   285      5.0   826.1    0.00     569    69.2
 239    8:10   65.6    40    0.9   299      3.8   826.1    0.00     603    69.2
 239    8:20   67.6    38    1.4   328      4.3   826.2    0.00     636    69.2
 239    8:30   67.1    37    2.5   323      6.0   826.3    0.00     666    69.1
 239    8:40   66.7    37    2.0   349      5.4   826.3    0.00     697    69.1
 239    8:50   68.6    36    0.9   343      3.4   826.3    0.00     727    69.1
 239    9:00   68.4    36    2.4   319      6.1   826.4    0.00     753    69.1
 239    9:10   68.3    35    1.8     8      6.0   826.4    0.00     777    69.0
 239    9:20   69.9    33    1.7    13      5.4   826.4    0.00     803    69.0
 239    9:30   70.2    32    1.3     9      6.5   826.4    0.00     827    69.0
 239    9:40   71.3    31    0.6    38      3.2   826.5    0.00     850    69.0
 239    9:50   71.6    31    1.7    62      4.8   826.5    0.00     872    69.1
 239   10:00   71.5    31    2.0   328      6.9   826.5    0.00     892    69.1
 239   10:10   71.5    31    1.7   322      5.5   826.4    0.00     909    69.1
 239   10:20   71.8    30    1.6   311      6.0   826.3    0.00     924    69.1
 239   10:30   73.3    29    0.0   130      1.9   826.3    0.00     940    69.1
 239   10:40   73.6    29    1.2   100      4.7   826.1    0.00     952    69.1
 239   10:50   74.0    28    1.2   136      4.2   826.0    0.00     971    69.2
 239   11:00   74.9    27    1.2   283      7.0   825.9    0.00    1035    69.2
 239   11:10   75.1    26    1.2   321      7.9   825.8    0.00     550    69.2
 239   11:20   73.4    28    2.4   269      7.1   825.9    0.00     260    69.3
 239   11:30   72.5    29    1.9   251      4.7   825.8    0.00     184    69.4
 239   11:40   71.9    29    2.8   286      6.7   825.8    0.00     159    69.5
 239   11:50   71.7    28    3.0   312      8.0   825.8    0.00     204    69.6
 239   12:00   73.1    26    1.8    74      5.6   825.7    0.00     798    69.7
 239   12:10   76.6    23    1.5   299      6.3   825.6    0.00    1085    69.8
 239   12:20   77.3    21    4.7   262     14.0   825.5    0.00    1092    69.9
 239   12:30   77.4    20    4.7   302     13.1   825.5    0.00     967    70.0
 239   12:40   76.2    22    7.3   321     14.4   825.5    0.00     948    70.1
 239   12:50   75.8    21    5.7   315     12.5   825.4    0.00     926    70.2
 239   13:00   76.4    20    3.1   324     10.2   825.4    0.00     689    70.3
 239   13:10   76.2    21    5.0   323     11.4   825.3    0.00     246    70.4
 239   13:20   75.4    21    3.8   324     11.5   825.2    0.00     816    70.5
 239   13:30   78.9    19    2.9   314      8.7   825.1    0.00    1067    70.6
 239   13:40   79.1    19    1.9   300      9.2   825.1    0.00    1073    70.7
 239   13:50   79.3    20    2.0   261      7.2   825.0    0.00     592    70.8
 239   14:00   77.2    20    5.7   259     14.2   825.0    0.00     622    70.9
 239   14:10   78.6    20    5.3   294     11.6   824.8    0.00     821    71.0
 239   14:20   79.1    19    5.0   286     12.8   824.8    0.00     930    71.2
 239   14:30   79.8    18    2.6   232      6.0   824.8    0.00     861    71.3
 239   14:40   79.4    18    5.9   289     12.6   824.7    0.00     783    71.4
 239   14:50   78.9    18    6.4   305     11.4   824.7    0.00     709    71.6
 239   15:00   79.1    18    6.8   313     13.3   824.6    0.00     740    71.7
 239   15:10   78.9    18    4.7   309     10.8   824.7    0.00     679    71.9
 239   15:20   79.5    16    6.0   270     14.7   824.7    0.00     633    72.0
 239   15:30   78.7    17    5.9   280     11.0   824.6    0.00     614    72.1
 239   15:40   79.0    18    3.7   289      9.8   824.7    0.00     559    72.3
 239   15:50   78.9    18    2.8   294      8.6   824.7    0.00     512    72.4
 239   16:00   78.0    18    4.7   310     12.1   824.6    0.00     310    72.6
 239   16:10   77.4    19    5.4   292     13.9   824.6    0.00      80    72.8
 239   16:20   76.9    19    3.7   286     10.4   824.6    0.00      64    72.9
 239   16:30   77.2    18    3.5   264      9.3   824.7    0.00      57    73.0
 239   16:40   77.1    19    3.7   308     11.4   824.6    0.00      42    73.1
 239   16:50   76.6    19    6.5   313     12.7   824.5    0.00      35    73.2
 239   17:00   76.7    19    3.6   311      8.7   824.4    0.00      36    73.3
 239   17:10   76.4    19    3.8   299      7.3   824.5    0.00      36    73.4
 239   17:20   76.3    20    3.9   308      6.9   824.5    0.00      31    73.5
 239   17:30   75.9    20    4.8   303      9.1   824.5    0.00      32    73.6
 239   17:40   76.0    20    4.3   305      8.8   824.5    0.00      36    73.6
 239   17:50   75.7    21    3.7   312      6.4   824.6    0.00      53    73.7
 239   18:00   74.0    23    1.9   298      5.2   824.7    0.00      12    73.8
 239   18:10   71.9    26    1.0   181      2.3   824.7    0.00      11    73.8
 239   18:20   70.6    27    0.7   182      2.1   824.8    0.00       5    73.9
 239   18:30   69.2    28    1.3   192      2.0   824.8    0.00       1    73.9
 239   18:40   68.3    28    1.8   210      3.5   824.8    0.00       0    73.9
 239   18:50   68.1    28    1.9   201      3.7   824.8    0.00       0    73.9
 239   19:00   67.8    29    1.3   178      2.4   824.9    0.00       0    74.0
 239   19:10   67.5    29    1.6   159      3.0   825.0    0.00       0    74.0
 239   19:20   67.6    28    2.3   154      4.1   825.1    0.00       0    74.0
 239   19:30   67.4    28    2.8   154      4.7   825.2    0.00       0    74.0
 239   19:40   67.1    29    3.5   154      5.0   825.2    0.00       0    74.0
 239   19:50   67.0    28    4.1   153      6.1   825.2    0.00       0    74.0
 239   20:00   66.5    29    5.0   153      6.3   825.3    0.00       0    74.0
 239   20:10   65.8    30    5.0   125      9.9   825.4    0.00       0    73.9
 239   20:20   63.7    32    5.4   101     10.9   825.6    0.00       0    73.9
 239   20:30   64.9    30    3.4   144      5.0   825.6    0.00       0    73.8
 239   20:40   64.5    31    1.9   168      4.7   825.6    0.00       0    73.9
 239   20:50   63.8    33    3.7   146      5.3   825.6    0.00       0    73.8
 239   21:00   65.3    35    4.6   133      7.2   825.6    0.00       0    73.8
 239   21:10   66.6    36    6.4   132     11.2   825.7    0.00       0    73.7
 239   21:20   66.8    37    5.2   120      8.3   825.7    0.00       0    73.7
 239   21:30   66.9    37    5.9   107      8.8   825.7    0.00       0    73.6
 239   21:40   66.7    37    5.1   115      8.0   825.6    0.00       0    73.6
 239   21:50   66.4    38    4.7   115      7.2   825.7    0.00       0    73.5
 239   22:00   66.0    38    4.2   130      6.1   825.8    0.00       0    73.5
 239   22:10   65.3    40    3.3   119      5.2   825.9    0.00       0    73.5
 239   22:20   64.9    41    2.7   125      4.4   825.9    0.00       0    73.4
 239   22:30   63.6    43    2.2   129      3.9   825.9    0.00       0    73.4
 239   22:40   62.7    45    2.8   148      4.1   825.8    0.00       0    73.3
 239   22:50   61.8    46    3.4   145      4.2   825.8    0.00       0    73.2
 239   23:00   61.5    46    3.2   137      3.7   825.9    0.00       0    73.2
 239   23:10   61.3    47    3.5   137      4.8   825.9    0.00       0    73.1
 239   23:20   61.2    47    4.1   144      5.2   826.0    0.00       0    73.1
 239   23:30   60.6    49    4.2   142      5.3   826.0    0.00       0    73.0
 239   23:40   60.5    49    4.3   146      5.2   826.0    0.00       0    73.0
 239   23:50   59.9    50    4.4   146      5.0   826.0    0.00       0    72.9
 240    0:00   59.9    51    4.2   148      5.2   825.9    0.00       0    72.9
 240    0:10   60.0    51    3.9   144      4.6   825.9    0.00       0    72.8
 240    0:20   60.6    50    3.7   140      4.7   825.9    0.00       0    72.8
 240    0:30   60.4    52    3.6   143      4.6   825.9    0.00       0    72.7
 240    0:40   59.9    55    3.5   149      4.8   825.9    0.00       0    72.6
 240    0:50   59.1    56    0.3   123      2.0   825.9    0.00       0    72.6
 240    1:00   58.0    62    0.0     0      0.0   825.9    0.00       0    72.5
 240    1:10   57.4    60    1.0   170      2.4   825.9    0.00       0    72.5
 240    1:20   58.0    58    3.2   152      4.4   825.9    0.00       0    72.4
 240    1:30   58.6    56    3.3   148      4.7   825.9    0.00       0    72.4
 240    1:40   58.7    56    2.4   138      3.7   825.9    0.00       0    72.3
 240    1:50   58.0    58    2.9   146      4.2   825.9    0.00       0    72.2
 240    2:00   58.1    57    2.5   142      4.1   826.0    0.00       0    72.2
 240    2:10   58.0    57    3.1   147      4.1   825.9    0.00       0    72.1
 240    2:20   58.5    56    2.7   146      3.9   825.8    0.00       0    72.1
 240    2:30   58.5    56    0.8   118      1.9   825.8    0.00       0    72.0
 240    2:40   58.0    57    0.1   113      0.7   825.8    0.00       0    72.0
 240    2:50   57.1    59    1.2   154      2.6   825.7    0.00       0    71.9
 240    3:00   57.9    56    2.1   150      3.3   825.7    0.00       0    71.9
 240    3:10   58.2    56    0.5   161      2.7   825.7    0.00       0    71.8
 240    3:20   57.2    58    0.7   168      2.0   825.7    0.00       0    71.7
 240    3:30   56.6    60    0.0   273      0.8   825.7    0.00       0    71.7
 240    3:40   56.4    60    0.0   274      0.7   825.8    0.00       0    71.6
 240    3:50   55.9    61    0.0   195      0.7   825.8    0.00       0    71.6
 240    4:00   55.4    62    0.1   194      0.9   825.8    0.00       0    71.5
 240    4:10   54.6    64    0.8   178      1.6   825.8    0.00       0    71.4
 240    4:20   54.3    64    1.8   161      3.7   825.9    0.00       0    71.4
 240    4:30   54.5    64    1.5   164      3.1   825.9    0.00       0    71.3
 240    4:40   54.9    62    2.3   162      3.7   825.9    0.00       0    71.3
 240    4:50   55.0    62    1.5   166      3.6   825.9    0.00       0    71.2
 240    5:00   55.9    59    2.7   156      4.4   825.9    0.00       1    71.1
 240    5:10   55.9    58    4.3   154      5.9   826.0    0.00       5    71.1
 240    5:20   55.9    59    3.0   161      6.1   826.0    0.00      10    71.0
 240    5:30   55.9    60    2.7   158      5.8   826.0    0.00      12    71.0
 240    5:40   55.4    61    0.8   244      1.9   826.1    0.00      22    70.9
 240    5:50   56.6    59    0.8   260      1.8   826.1    0.00     102    70.8
 240    6:00   59.6    53    1.8   293      3.8   826.2    0.00     140    70.8
 240    6:10   60.8    49    2.3   301      3.7   826.2    0.00     175    70.8
 240    6:20   61.2    48    3.1   308      4.4   826.3    0.00     211    70.7

Return to Pioche, Nevada graphs page.


Western Regional Climate Center,wrcc@dri.edu